Time;durP1;ratioP1;P1;durP2;ratioP2;P2;SDS_P1;SDS_P2;PMS_P1;PMS_P2;Temp;Humidity;BMP_temperature;BMP_pressure;BME280_temperature;BME280_humidity;BME280_pressure;Samples;Min_cycle;Max_cycle;Signal;HPM_P1;HPM_P2
2021/05/18 00:02:58;;;;;;;8.28;3.02;;;;;;;10.10;91.33;97676.79;1981466;90;21598;-63
2021/05/18 00:06:00;;;;;;;5.42;2.35;;;;;;;10.07;91.63;97675.27;1999540;88;21073;-63
2021/05/18 00:12:04;;;;;;;6.37;2.60;;;;;;;10.02;92.30;97676.08;2023381;87;21630;-63
2021/05/18 00:15:06;;;;;;;6.87;2.37;;;;;;;10.00;92.16;97672.27;1982362;90;21051;-63
2021/05/18 00:18:07;;;;;;;9.18;2.35;;;;;;;9.99;91.59;97674.53;2002695;89;21120;-63
2021/05/18 00:21:09;;;;;;;6.47;2.17;;;;;;;9.99;91.58;97674.53;1982318;90;21055;-63
2021/05/18 00:24:10;;;;;;;5.50;2.02;;;;;;;9.99;90.95;97671.91;2002865;89;21072;-63
2021/05/18 00:27:12;;;;;;;6.55;2.45;;;;;;;9.97;91.31;97668.59;1982390;90;21119;-62
2021/05/18 00:30:13;;;;;;;6.53;2.17;;;;;;;9.98;91.13;97665.48;2003081;89;21104;-63
2021/05/18 00:33:15;;;;;;;4.67;2.12;;;;;;;9.96;91.65;97669.53;1982209;90;21554;-63
2021/05/18 00:36:16;;;;;;;6.80;2.30;;;;;;;9.93;91.43;97675.01;2002856;89;21082;-64
2021/05/18 00:39:18;;;;;;;8.93;2.35;;;;;;;9.93;91.50;97676.31;1982340;90;21071;-63
2021/05/18 00:42:19;;;;;;;7.62;2.15;;;;;;;9.90;92.42;97672.62;2002848;89;21121;-63
2021/05/18 00:45:21;;;;;;;6.05;2.40;;;;;;;9.90;91.48;97675.25;1982418;90;21095;-63
2021/05/18 00:48:22;;;;;;;6.70;2.35;;;;;;;9.89;91.85;97666.53;2002742;89;21552;-63
2021/05/18 00:51:24;;;;;;;6.43;2.53;;;;;;;9.89;92.15;97674.39;1982455;90;21145;-65
2021/05/18 00:54:28;;;;;;;7.03;2.70;;;;;;;9.89;91.47;97680.12;2003129;89;21048;-63
2021/05/18 01:00:32;;;;;;;6.67;2.60;;;;;;;9.86;91.92;97686.91;2023393;87;21072;-63
2021/05/18 01:03:33;;;;;;;6.33;2.47;;;;;;;9.86;92.23;97693.45;1982353;90;21142;-63
2021/05/18 01:06:35;;;;;;;6.10;2.33;;;;;;;9.84;92.49;97694.03;2002928;88;21101;-63
2021/05/18 01:09:36;;;;;;;6.28;2.50;;;;;;;9.85;91.54;97693.08;1982387;90;21211;-63
2021/05/18 01:12:38;;;;;;;11.00;2.92;;;;;;;9.89;91.47;97695.34;2002813;89;21584;-63
2021/05/18 01:15:39;;;;;;;6.47;2.50;;;;;;;9.89;91.55;97699.28;1982447;90;21094;-63
2021/05/18 01:18:41;;;;;;;7.15;2.60;;;;;;;9.91;91.54;97700.47;2003044;89;21060;-63
2021/05/18 01:21:43;;;;;;;7.90;2.60;;;;;;;9.93;91.70;97703.82;1982491;90;21057;-63
2021/05/18 01:24:45;;;;;;;6.75;2.15;;;;;;;9.89;92.02;97701.07;2003073;88;21072;-63
2021/05/18 01:27:46;;;;;;;10.05;2.55;;;;;;;9.87;91.81;97691.20;1982428;90;21640;-64
2021/05/18 01:30:49;;;;;;;4.92;2.25;;;;;;;9.88;91.78;97692.84;2002774;89;21040;-63
2021/05/18 01:33:51;;;;;;;6.55;2.10;;;;;;;9.86;92.09;97687.73;1969662;90;21069;-63
2021/05/18 01:36:53;;;;;;;4.35;1.85;;;;;;;9.82;92.24;97688.91;2002968;89;21168;-64
2021/05/18 01:42:58;;;;;;;2.93;1.60;;;;;;;9.79;92.49;97691.77;2002940;89;21018;-63
2021/05/18 01:45:59;;;;;;;4.65;1.60;;;;;;;9.80;92.70;97686.89;1959516;90;21082;-64
2021/05/18 01:49:00;;;;;;;6.60;1.77;;;;;;;9.79;93.18;97688.32;2002702;88;21048;-63
2021/05/18 01:52:02;;;;;;;5.13;1.63;;;;;;;9.80;92.50;97696.55;1982512;90;21070;-63
2021/05/18 01:55:03;;;;;;;3.98;1.57;;;;;;;9.80;92.69;97699.98;2002977;88;21580;-63
2021/05/18 01:58:05;;;;;;;4.20;1.80;;;;;;;9.84;92.14;97698.81;1982534;90;21087;-63
2021/05/18 02:01:06;;;;;;;5.20;1.40;;;;;;;9.85;92.55;97700.94;2002909;89;21097;-62
2021/05/18 02:04:08;;;;;;;5.92;1.90;;;;;;;9.85;92.23;97708.31;1982250;90;21067;-63
2021/05/18 02:07:09;;;;;;;4.00;1.73;;;;;;;9.85;92.09;97710.93;1998453;89;21085;-63
2021/05/18 02:10:11;;;;;;;5.62;1.35;;;;;;;9.82;92.50;97711.17;1981284;90;21050;-64
2021/05/18 02:13:12;;;;;;;4.13;1.63;;;;;;;9.80;92.87;97713.08;1996324;89;21065;-63
2021/05/18 02:16:14;;;;;;;4.58;1.98;;;;;;;9.83;92.34;97721.19;1963363;91;21068;-63
2021/05/18 02:25:21;;;;;;;3.40;1.80;;;;;;;9.81;92.92;97729.62;1996420;89;21107;-63
2021/05/18 02:28:22;;;;;;;4.55;1.77;;;;;;;9.80;92.55;97730.11;1981144;90;21562;-63
2021/05/18 02:31:25;;;;;;;4.70;1.80;;;;;;;9.77;93.09;97734.27;1996099;89;21109;-63
2021/05/18 02:34:26;;;;;;;4.30;1.52;;;;;;;9.74;93.32;97736.27;1981143;90;21059;-63
2021/05/18 02:37:28;;;;;;;5.92;1.87;;;;;;;9.73;93.47;97728.89;1996083;89;21078;-63
2021/05/18 02:40:31;;;;;;;3.00;1.57;;;;;;;9.70;93.32;97727.34;1980996;90;21665;-63
2021/05/18 02:43:41;;;;;;;2.55;1.47;;;;;;;9.68;93.46;97734.48;1996064;89;21085;-63
2021/05/18 02:49:39;;;;;;;3.35;1.45;;;;;;;9.64;94.38;97728.26;2020423;88;21611;-63
2021/05/18 02:52:42;;;;;;;3.98;1.30;;;;;;;9.63;94.15;97723.51;1981221;90;21063;-63
2021/05/18 02:58:57;;;;;;;2.20;1.22;;;;;;;9.58;94.50;97723.00;1961651;90;21171;-63
2021/05/18 03:01:50;;;;;;;3.65;1.05;;;;;;;9.55;94.92;97721.92;2020534;87;21073;-63
2021/05/18 03:04:51;;;;;;;3.50;1.30;;;;;;;9.54;95.02;97734.67;1981482;90;21067;-63
2021/05/18 03:07:53;;;;;;;2.87;1.50;;;;;;;9.54;94.93;97734.67;2002029;88;21619;-62
2021/05/18 03:10:55;;;;;;;3.92;1.32;;;;;;;9.56;94.94;97739.31;1969918;90;21076;-63
2021/05/18 03:13:56;;;;;;;2.37;1.22;;;;;;;9.57;94.81;97736.21;2002741;89;21571;-63
2021/05/18 03:16:58;;;;;;;4.62;1.12;;;;;;;9.58;95.23;97743.95;1982365;90;21063;-63
2021/05/18 03:19:59;;;;;;;2.80;1.67;;;;;;;9.60;94.94;97743.38;2003015;89;21057;-63
2021/05/18 03:23:00;;;;;;;2.90;1.32;;;;;;;9.60;94.97;97738.63;1982444;90;21080;-62
2021/05/18 03:26:02;;;;;;;2.92;1.50;;;;;;;9.62;95.18;97747.19;2002804;89;21056;-64
2021/05/18 03:35:10;;;;;;;5.45;1.77;;;;;;;9.64;94.87;97760.53;1959554;90;21177;-63
2021/05/18 03:41:21;;;;;;;2.55;1.60;;;;;;;9.66;95.07;97765.66;1959791;90;21083;-63
2021/05/18 04:21:00;;;;;;;3.20;1.87;;;;;;;9.70;94.98;97773.64;1937816;91;21679;-63
2021/05/18 04:39:25;;;;;;;3.62;1.65;;;;;;;9.61;94.00;97788.70;1967590;89;21200;-62
2021/05/18 04:51:33;;;;;;;4.95;1.52;;;;;;;9.62;93.48;97813.95;1927189;92;21205;-62
2021/05/18 05:03:53;;;;;;;4.00;1.70;;;;;;;9.68;93.34;97816.96;2000393;88;21639;-62
2021/05/18 05:06:51;;;;;;;3.52;1.65;;;;;;;9.65;93.56;97824.19;1972963;89;21635;-63
2021/05/18 05:09:47;;;;;;;4.75;1.95;;;;;;;9.60;93.76;97822.41;2020347;88;21604;-63
2021/05/18 05:15:52;;;;;;;7.95;2.10;;;;;;;9.60;94.15;97825.84;2020512;88;21073;-62
2021/05/18 05:18:54;;;;;;;4.67;1.70;;;;;;;9.62;94.45;97823.11;1981176;90;21079;-62
2021/05/18 05:21:55;;;;;;;7.08;2.10;;;;;;;9.63;94.61;97829.55;1996277;89;21033;-62
2021/05/18 05:24:56;;;;;;;6.10;1.85;;;;;;;9.65;94.74;97828.12;1981453;90;21542;-63
2021/05/18 05:27:58;;;;;;;6.12;2.05;;;;;;;9.65;94.28;97825.02;1996376;89;21069;-63
2021/05/18 05:30:59;;;;;;;6.87;2.17;;;;;;;9.65;94.78;97827.63;1981492;90;21079;-63
2021/05/18 05:34:01;;;;;;;9.28;2.27;;;;;;;9.64;94.76;97823.82;1996371;89;21026;-63
2021/05/18 05:37:02;;;;;;;6.37;2.17;;;;;;;9.65;95.08;97828.12;1981515;90;21056;-62
2021/05/18 05:40:04;;;;;;;5.67;2.22;;;;;;;9.66;95.31;97822.77;1996118;89;21585;-63
2021/05/18 05:43:05;;;;;;;6.15;2.58;;;;;;;9.67;95.38;97819.21;1981564;90;21055;-63
2021/05/18 05:46:07;;;;;;;7.37;2.40;;;;;;;9.69;95.52;97819.92;1996269;89;21196;-62
2021/05/18 05:49:08;;;;;;;6.40;2.17;;;;;;;9.73;95.83;97819.72;1981246;90;21043;-63
2021/05/18 05:52:16;;;;;;;6.87;2.10;;;;;;;9.79;95.61;97816.16;1996321;89;21077;-62
2021/05/18 05:55:33;;;;;;;10.15;2.50;;;;;;;9.86;95.59;97825.72;1968447;90;21159;-65
2021/05/18 05:58:34;;;;;;;7.33;2.58;;;;;;;9.89;95.35;97831.55;2006744;89;21589;-63
2021/05/18 06:01:36;;;;;;;4.95;1.92;;;;;;;9.95;94.92;97829.44;2006715;89;21055;-63
2021/05/18 06:04:37;;;;;;;4.97;2.00;;;;;;;9.97;94.65;97835.38;2007010;89;21054;-63
2021/05/18 06:07:39;;;;;;;4.12;2.10;;;;;;;9.99;94.46;97849.22;2006783;89;21598;-64
2021/05/18 06:10:43;;;;;;;5.65;2.40;;;;;;;9.97;94.75;97857.20;2006733;89;21055;-63
2021/05/18 06:17:05;;;;;;;6.67;2.30;;;;;;;9.95;94.97;97866.11;2006963;89;21075;-63
2021/05/18 06:41:21;;;;;;;8.18;2.62;;;;;;;10.02;94.36;97890.42;2029563;87;21063;-63
2021/05/18 06:53:25;;;;;;;5.47;2.52;;;;;;;10.20;94.21;97903.10;2037922;86;21083;-64
2021/05/18 06:56:33;;;;;;;6.97;2.63;;;;;;;10.32;94.23;97898.76;2041870;87;21028;-63
2021/05/18 07:02:32;;;;;;;6.77;2.53;;;;;;;10.61;93.63;97898.38;2041769;87;21499;-64
2021/05/18 07:11:38;;;;;;;8.63;2.63;;;;;;;10.55;92.96;97914.10;2041830;87;21036;-63
2021/05/18 07:14:39;;;;;;;6.55;2.60;;;;;;;10.51;93.26;97917.90;2041793;87;21024;-63
2021/05/18 07:17:41;;;;;;;6.05;2.45;;;;;;;10.43;92.79;97926.80;2041672;87;21670;-63
2021/05/18 07:20:43;;;;;;;9.00;2.70;;;;;;;10.36;93.59;97912.86;2041769;87;21121;-64
2021/05/18 07:23:44;;;;;;;6.42;2.60;;;;;;;10.31;94.23;97918.88;2041780;87;21623;-63
2021/05/18 07:26:46;;;;;;;6.67;2.45;;;;;;;10.28;94.29;97923.03;2041766;87;21032;-63
2021/05/18 07:29:47;;;;;;;6.25;2.55;;;;;;;10.21;94.39;97920.51;2041932;87;21143;-64
2021/05/18 07:32:49;;;;;;;8.20;2.55;;;;;;;10.21;94.60;97923.98;2041948;87;21539;-63
2021/05/18 07:35:56;;;;;;;8.15;2.55;;;;;;;10.20;94.75;97917.06;2041815;87;21112;-63
2021/05/18 07:38:53;;;;;;;8.40;2.20;;;;;;;10.17;94.59;97930.84;2019834;87;21067;-64
2021/05/18 07:41:55;;;;;;;3.90;1.90;;;;;;;10.14;94.72;97927.15;2041966;87;21598;-63
2021/05/18 07:44:56;;;;;;;6.75;2.60;;;;;;;10.11;94.30;97934.75;2042137;87;21028;-63
2021/05/18 07:48:02;;;;;;;7.70;2.30;;;;;;;10.12;94.44;97925.12;2041875;87;21108;-63
2021/05/18 07:51:12;;;;;;;6.55;2.20;;;;;;;10.12;94.57;97925.12;2019674;87;21067;-63
2021/05/18 08:06:18;;;;;;;6.78;1.98;;;;;;;10.17;94.58;97954.44;2008038;88;21671;-63
2021/05/18 08:09:22;;;;;;;6.15;2.17;;;;;;;10.21;94.13;97958.50;2006934;88;21068;-63
2021/05/18 08:12:23;;;;;;;4.70;1.98;;;;;;;10.20;93.60;97956.38;2008072;88;21160;-64
2021/05/18 08:18:38;;;;;;;8.77;2.57;;;;;;;10.30;93.36;97964.40;2006977;89;21041;-63
2021/05/18 09:29:42;;;;;;;4.67;1.82;;;;;;;11.06;89.47;97976.67;2007814;88;21089;-64
2021/05/18 10:24:28;;;;;;;7.87;2.50;;;;;;;12.05;86.91;98012.37;2019437;87;21554;-64
2021/05/18 10:35:54;;;;;;;9.23;3.17;;;;;;;12.12;85.53;98009.60;2041887;87;21064;-64
2021/05/18 10:38:55;;;;;;;9.58;3.33;;;;;;;12.15;87.30;98011.62;2019559;87;21060;-64
2021/05/18 10:41:57;;;;;;;11.28;3.72;;;;;;;12.01;85.73;98020.59;2041885;87;21543;-64
2021/05/18 10:44:58;;;;;;;9.40;3.55;;;;;;;11.88;87.20;98014.13;2041756;87;21112;-64
2021/05/18 10:47:59;;;;;;;8.73;3.65;;;;;;;11.74;87.00;98020.01;2041897;87;20996;-64
2021/05/18 10:51:01;;;;;;;10.83;3.90;;;;;;;11.63;88.03;98022.64;2041872;87;21063;-63
2021/05/18 10:54:02;;;;;;;12.65;4.10;;;;;;;11.55;88.47;98023.70;2039750;86;21176;-64
2021/05/18 10:57:04;;;;;;;11.97;3.90;;;;;;;11.50;88.74;98031.12;2020884;88;21037;-64
2021/05/18 11:00:05;;;;;;;12.37;3.80;;;;;;;11.46;89.60;98033.63;2020746;88;21041;-64
2021/05/18 11:03:07;;;;;;;12.15;3.65;;;;;;;11.46;88.57;98032.31;2021048;88;21054;-63
2021/05/18 11:06:09;;;;;;;11.40;3.70;;;;;;;11.46;89.13;98034.94;2020802;88;21537;-63
2021/05/18 11:09:10;;;;;;;10.58;3.90;;;;;;;11.47;89.44;98032.19;2020929;88;21036;-65
2021/05/18 11:12:12;;;;;;;15.75;4.65;;;;;;;11.52;89.70;98030.52;2020650;88;21013;-64
2021/05/18 11:15:13;;;;;;;11.87;4.13;;;;;;;11.58;89.72;98032.69;2020919;88;21084;-63
2021/05/18 11:18:15;;;;;;;12.87;4.37;;;;;;;11.71;89.65;98032.53;2020991;88;21097;-64
2021/05/18 11:21:16;;;;;;;14.90;4.90;;;;;;;11.80;89.62;98037.08;2020876;88;21512;-63
2021/05/18 11:24:18;;;;;;;12.07;4.25;;;;;;;11.85;89.65;98039.34;2021011;88;21101;-64
2021/05/18 11:27:19;;;;;;;16.93;4.85;;;;;;;11.91;89.75;98034.91;2020866;88;21083;-64
2021/05/18 11:30:21;;;;;;;11.18;4.20;;;;;;;11.96;89.44;98037.56;2020898;87;20985;-64
2021/05/18 11:33:22;;;;;;;16.15;4.87;;;;;;;11.88;88.46;98043.89;2020882;88;21025;-63
2021/05/18 11:36:26;;;;;;;13.83;5.00;;;;;;;11.81;89.30;98034.83;2020926;88;21535;-64
2021/05/18 11:39:27;;;;;;;12.30;4.50;;;;;;;11.81;89.83;98042.70;2020608;88;21559;-63
2021/05/18 11:42:28;;;;;;;13.32;4.70;;;;;;;11.79;89.51;98044.14;2021146;88;21037;-63
2021/05/18 11:45:30;;;;;;;13.63;3.90;;;;;;;11.81;89.81;98038.77;2021026;88;21097;-63
2021/05/18 11:48:32;;;;;;;14.33;4.00;;;;;;;11.74;89.61;98043.66;2020796;88;21072;-63
2021/05/18 11:51:34;;;;;;;12.05;4.25;;;;;;;11.76;90.35;98050.09;2020742;88;21116;-63
2021/05/18 11:54:37;;;;;;;13.80;4.33;;;;;;;11.81;90.17;98051.05;2024672;87;21574;-64
2021/05/18 11:57:38;;;;;;;10.23;3.75;;;;;;;11.85;89.55;98053.34;2041726;87;21079;-64
2021/05/18 12:00:40;;;;;;;10.85;3.70;;;;;;;11.89;89.75;98049.48;2041897;87;21016;-64
2021/05/18 12:03:41;;;;;;;11.60;4.30;;;;;;;11.92;89.32;98054.52;2041957;87;21067;-64
2021/05/18 12:06:43;;;;;;;13.43;4.10;;;;;;;11.95;88.94;98052.14;2041914;87;21032;-64
2021/05/18 12:09:44;;;;;;;12.23;4.00;;;;;;;11.96;88.84;98057.27;2042012;87;21123;-63
2021/05/18 12:12:47;;;;;;;11.70;4.08;;;;;;;12.04;89.32;98054.05;2041918;87;21525;-63
2021/05/18 12:15:48;;;;;;;10.78;3.58;;;;;;;12.12;88.75;98056.06;2041864;87;21032;-64
2021/05/18 12:18:49;;;;;;;9.80;3.80;;;;;;;12.20;87.82;98060.73;2041886;87;21155;-64
2021/05/18 12:21:51;;;;;;;8.53;3.60;;;;;;;12.29;88.03;98054.72;2042009;87;21008;-64
2021/05/18 12:24:55;;;;;;;;;;;;;;;12.39;87.34;98054.82;2044068;87;21099;-64
2021/05/18 12:27:57;;;;;;;11.25;3.62;;;;;;;12.46;86.04;98069.14;2006851;89;20529;-64
2021/05/18 12:30:58;;;;;;;10.35;3.40;;;;;;;12.54;87.17;98054.05;2041855;87;21064;-64
2021/05/18 12:34:00;;;;;;;8.03;3.10;;;;;;;12.64;87.08;98052.33;2041934;87;21602;-64
2021/05/18 12:37:01;;;;;;;10.10;3.10;;;;;;;12.69;86.28;98062.01;2041980;87;21036;-64
2021/05/18 12:40:03;;;;;;;9.67;3.50;;;;;;;12.57;85.79;98064.31;2041955;87;21135;-64
2021/05/18 12:43:04;;;;;;;12.93;3.50;;;;;;;12.39;86.97;98067.48;2041781;87;21092;-64
2021/05/18 12:46:06;;;;;;;9.58;3.37;;;;;;;12.24;86.64;98077.91;2042020;87;21018;-63
2021/05/18 12:49:08;;;;;;;9.35;3.02;;;;;;;12.08;88.96;98070.41;2041735;87;21534;-64
2021/05/18 12:52:10;;;;;;;10.03;3.17;;;;;;;12.03;88.98;98067.33;2041777;87;21143;-64
2021/05/18 12:55:11;;;;;;;10.87;3.50;;;;;;;12.00;88.55;98076.28;2035619;87;21188;-64
2021/05/18 12:58:14;;;;;;;7.87;3.33;;;;;;;12.00;88.62;98075.45;2020804;88;21046;-64
2021/05/18 13:01:17;;;;;;;11.20;3.72;;;;;;;12.03;88.80;98072.58;2020579;88;21532;-65
2021/05/18 13:04:19;;;;;;;10.32;3.15;;;;;;;12.01;87.44;98092.41;2023637;88;21592;-64
2021/05/18 13:07:21;;;;;;;10.55;3.37;;;;;;;11.99;88.16;98079.03;2020936;88;21042;-64
2021/05/18 13:10:27;;;;;;;9.90;3.50;;;;;;;12.00;87.89;98079.39;2020920;88;21065;-64
2021/05/18 13:13:25;;;;;;;9.10;3.05;;;;;;;12.00;88.38;98091.22;2023672;88;21049;-64
2021/05/18 13:16:27;;;;;;;9.23;3.40;;;;;;;12.01;88.00;98096.36;2021037;87;21022;-64
2021/05/18 13:19:28;;;;;;;8.30;3.08;;;;;;;12.03;87.06;98089.17;2020882;88;21081;-63
2021/05/18 13:22:32;;;;;;;8.55;3.20;;;;;;;12.08;87.78;98094.91;2020950;88;21624;-64
2021/05/18 13:28:36;;;;;;;12.60;3.72;;;;;;;11.99;87.91;98117.96;2023541;88;21093;-64
2021/05/18 13:31:38;;;;;;;13.40;4.13;;;;;;;11.91;88.36;98117.68;2020877;88;21002;-64
2021/05/18 13:34:40;;;;;;;11.57;4.03;;;;;;;11.90;89.37;98108.97;2020679;88;21017;-64
2021/05/18 13:37:42;;;;;;;12.50;4.12;;;;;;;11.94;88.81;98110.94;2020914;88;21045;-64
2021/05/18 13:40:44;;;;;;;12.93;4.33;;;;;;;12.11;89.83;98107.81;2020668;88;21048;-64
2021/05/18 13:43:45;;;;;;;10.57;3.53;;;;;;;12.29;88.27;98109.45;2020885;88;21058;-64
2021/05/18 13:46:47;;;;;;;12.58;3.90;;;;;;;12.45;87.30;98108.23;2020752;88;21624;-64
2021/05/18 13:49:48;;;;;;;10.13;3.67;;;;;;;12.59;87.51;98116.34;2020720;88;21041;-64
2021/05/18 13:52:50;;;;;;;10.25;3.87;;;;;;;12.78;86.50;98111.23;2020882;88;21041;-64
2021/05/18 13:55:52;;;;;;;12.50;4.33;;;;;;;12.87;86.25;98107.51;2029602;85;21567;-64
2021/05/18 13:58:53;;;;;;;15.05;4.72;;;;;;;13.08;86.27;98108.38;2041965;87;21425;-64
2021/05/18 14:01:55;;;;;;;12.13;4.67;;;;;;;13.23;84.72;98100.16;2041901;87;21032;-64
2021/05/18 14:04:58;;;;;;;15.47;4.93;;;;;;;13.39;85.00;98092.69;2041802;87;21111;-63
2021/05/18 14:08:26;;;;;;;14.75;4.90;;;;;;;13.55;84.76;98086.95;2041536;87;21850;-64
2021/05/18 14:11:03;;;;;;;13.00;5.12;;;;;;;13.45;83.89;98102.70;2019840;87;21559;-64
2021/05/18 14:14:05;;;;;;;15.60;4.93;;;;;;;13.36;82.66;98095.59;2041900;87;21119;-64
2021/05/18 14:17:06;;;;;;;15.47;5.33;;;;;;;13.25;83.10;98106.16;2042011;87;21108;-64
2021/05/18 14:20:08;;;;;;;13.60;4.70;;;;;;;13.39;83.16;98096.64;2041833;87;21055;-64
2021/05/18 14:23:09;;;;;;;14.03;5.07;;;;;;;13.75;83.10;98089.67;2042030;87;21112;-64
2021/05/18 14:26:11;;;;;;;13.78;4.60;;;;;;;14.15;82.72;98094.13;2042027;87;21055;-64
2021/05/18 14:29:12;;;;;;;13.67;4.60;;;;;;;14.54;78.91;98099.03;2041981;87;21095;-64
2021/05/18 14:32:14;;;;;;;13.33;5.00;;;;;;;14.85;79.51;98091.02;2041906;87;21391;-65
2021/05/18 14:35:16;;;;;;;;;;;;;;;15.16;78.30;98096.16;2044097;87;21152;-64
2021/05/18 14:38:19;;;;;;;12.82;4.30;;;;;;;15.18;75.58;98094.70;2007167;89;20508;-64
2021/05/18 14:44:24;;;;;;;10.05;3.70;;;;;;;15.36;74.32;98086.90;2041929;87;21024;-64
2021/05/18 14:47:30;;;;;;;9.88;3.50;;;;;;;15.12;75.95;98101.88;2019656;87;21028;-65
2021/05/18 14:56:36;;;;;;;8.60;3.05;;;;;;;13.97;77.16;98093.95;2000003;87;21628;-64
2021/05/18 14:59:38;;;;;;;7.50;1.97;;;;;;;13.77;76.53;98104.89;2006966;88;21073;-67
2021/05/18 15:02:39;;;;;;;9.87;2.60;;;;;;;13.52;74.46;98106.98;2006903;88;21037;-64
2021/05/18 15:05:41;;;;;;;6.27;2.40;;;;;;;13.33;77.43;98102.38;2006913;88;21049;-65
2021/05/18 15:08:42;;;;;;;9.20;2.47;;;;;;;13.13;79.26;98102.72;2006979;88;21080;-67
2021/05/18 15:11:43;;;;;;;3.40;1.70;;;;;;;13.13;79.26;98102.72;2006779;88;21546;-64
2021/05/18 15:14:45;;;;;;;3.77;1.98;;;;;;;13.01;77.31;98111.16;2006691;89;21065;-66
2021/05/18 15:17:47;;;;;;;4.73;1.70;;;;;;;12.86;77.89;98113.27;2006887;88;21061;-66
2021/05/18 15:20:49;;;;;;;5.30;1.50;;;;;;;12.75;78.44;98121.19;2006744;88;21053;-65
2021/05/18 15:23:50;;;;;;;2.80;1.32;;;;;;;12.68;79.03;98118.22;2006928;89;21161;-64
2021/05/18 15:26:52;;;;;;;3.37;1.43;;;;;;;12.55;77.85;98121.00;2006792;88;21631;-64
2021/05/18 15:29:53;;;;;;;2.50;1.40;;;;;;;12.51;78.56;98118.74;2006879;88;21041;-64
2021/05/18 15:32:54;;;;;;;3.03;1.30;;;;;;;12.39;79.17;98118.77;2006758;88;21869;-67
2021/05/18 15:35:56;;;;;;;5.63;1.63;;;;;;;12.34;79.16;98121.40;2006849;88;21100;-65
2021/05/18 15:38:57;;;;;;;3.23;1.50;;;;;;;12.41;80.15;98119.95;2006873;88;21026;-64
2021/05/18 15:41:59;;;;;;;8.20;1.98;;;;;;;12.39;80.36;98116.63;2006789;88;21048;-64
2021/05/18 15:45:00;;;;;;;6.47;1.70;;;;;;;12.42;80.52;98109.80;2006804;88;21033;-65
2021/05/18 15:48:04;;;;;;;6.40;1.73;;;;;;;12.54;79.99;98111.45;2006937;88;21045;-64
2021/05/18 15:51:06;;;;;;;7.40;1.80;;;;;;;12.59;79.46;98112.39;2007830;88;21560;-64
2021/05/18 15:54:07;;;;;;;4.28;1.75;;;;;;;12.69;79.04;98112.49;2006956;89;21045;-64
2021/05/18 15:57:10;;;;;;;4.37;1.67;;;;;;;12.77;78.80;98114.00;2025341;87;21033;-64
2021/05/18 16:00:11;;;;;;;8.60;2.10;;;;;;;12.88;78.20;98112.64;2034509;87;21149;-64
2021/05/18 16:03:13;;;;;;;7.17;2.20;;;;;;;13.00;77.19;98131.85;2034506;87;21615;-65
2021/05/18 16:06:15;;;;;;;7.70;2.37;;;;;;;13.18;75.83;98134.78;2034902;87;21134;-64
2021/05/18 16:09:16;;;;;;;7.35;2.10;;;;;;;13.32;76.48;98125.25;2034689;87;21020;-65
2021/05/18 16:12:18;;;;;;;6.10;2.00;;;;;;;13.32;76.08;98129.20;2034637;87;21108;-64
2021/05/18 16:15:19;;;;;;;10.48;2.60;;;;;;;13.22;76.49;98128.80;2034719;87;21005;-65
2021/05/18 16:18:21;;;;;;;9.47;2.40;;;;;;;13.03;76.78;98117.15;2034633;87;21045;-64
2021/05/18 16:21:22;;;;;;;7.90;2.07;;;;;;;12.98;77.42;98120.14;2034872;87;21017;-64
2021/05/18 16:24:25;;;;;;;6.37;1.93;;;;;;;12.86;77.89;98125.56;2034776;87;21038;-64
2021/05/18 16:27:27;;;;;;;7.00;2.52;;;;;;;12.84;78.64;98116.48;2034392;87;21017;-64
2021/05/18 16:30:28;;;;;;;5.05;2.30;;;;;;;12.80;78.75;98119.00;2034644;87;21089;-64
2021/05/18 16:33:29;;;;;;;6.80;2.60;;;;;;;12.81;78.67;98118.91;2034651;87;21520;-64
2021/05/18 16:36:31;;;;;;;9.00;2.73;;;;;;;12.80;78.85;98128.22;2034743;87;21133;-64
2021/05/18 16:39:33;;;;;;;10.63;2.55;;;;;;;12.75;79.20;98125.14;2034469;87;21045;-64
2021/05/18 16:42:35;;;;;;;7.67;2.17;;;;;;;12.74;79.79;98132.21;2034644;87;21032;-65
2021/05/18 16:45:36;;;;;;;8.18;2.72;;;;;;;12.71;79.44;98135.06;2034619;87;21009;-64
2021/05/18 16:48:38;;;;;;;8.97;2.73;;;;;;;12.68;80.03;98132.69;2034747;87;21093;-65
2021/05/18 16:51:40;;;;;;;10.45;2.72;;;;;;;12.71;79.71;98136.87;2034472;87;21171;-64
2021/05/18 16:54:41;;;;;;;9.35;2.52;;;;;;;12.66;80.26;98135.94;2034752;87;21020;-64
2021/05/18 16:57:43;;;;;;;11.73;3.07;;;;;;;12.60;80.49;98140.38;2034512;87;21168;-65
2021/05/18 17:00:44;;;;;;;10.60;2.83;;;;;;;12.57;80.17;98142.77;2034611;87;21536;-64
2021/05/18 17:03:45;;;;;;;11.97;3.93;;;;;;;12.60;80.26;98152.22;2034756;87;21117;-63
2021/05/18 17:06:49;;;;;;;8.93;3.00;;;;;;;12.58;80.75;98158.89;2034638;87;21045;-64
2021/05/18 17:09:50;;;;;;;9.25;2.90;;;;;;;12.54;80.56;98164.52;2037507;87;21648;-64
2021/05/18 17:12:52;;;;;;;8.83;2.70;;;;;;;12.40;80.31;98165.64;2034992;87;21030;-65
2021/05/18 17:15:53;;;;;;;12.78;3.12;;;;;;;12.26;80.99;98159.66;2034601;87;21069;-64
2021/05/18 17:18:55;;;;;;;10.88;3.00;;;;;;;12.19;81.39;98162.41;2034688;87;21073;-65
2021/05/18 17:21:57;;;;;;;9.93;3.20;;;;;;;12.16;81.74;98157.39;2034703;87;21131;-65
2021/05/18 17:24:58;;;;;;;11.05;3.27;;;;;;;12.13;81.61;98158.46;2034684;87;21587;-64
2021/05/18 17:27:59;;;;;;;10.58;3.10;;;;;;;12.09;81.84;98154.39;2034837;87;21077;-64
2021/05/18 17:31:01;;;;;;;11.23;3.57;;;;;;;12.02;82.14;98158.45;2034672;87;21024;-64
2021/05/18 17:34:02;;;;;;;14.80;3.80;;;;;;;11.95;82.66;98155.95;2034710;87;21101;-64
2021/05/18 17:37:05;;;;;;;17.73;4.12;;;;;;;11.92;82.88;98161.41;2034430;87;21703;-65
2021/05/18 17:40:06;;;;;;;13.03;4.03;;;;;;;11.86;83.08;98162.72;2034630;87;21033;-64
2021/05/18 17:43:09;;;;;;;12.27;3.47;;;;;;;11.82;83.13;98162.59;2034682;87;21016;-65
2021/05/18 17:46:11;;;;;;;12.55;3.55;;;;;;;11.82;83.25;98168.33;2034445;87;21053;-64
2021/05/18 17:49:15;;;;;;;14.13;4.00;;;;;;;11.77;83.81;98165.58;2034584;87;21615;-64
2021/05/18 17:52:16;;;;;;;30.77;5.78;;;;;;;11.68;83.63;98174.17;2037329;87;21184;-64
2021/05/18 17:55:19;;;;;;;15.60;4.40;;;;;;;11.64;83.69;98173.18;2034460;87;21065;-65
2021/05/18 17:58:21;;;;;;;17.85;5.03;;;;;;;11.64;84.18;98179.30;2040843;87;21168;-64
2021/05/18 18:01:22;;;;;;;22.43;7.33;;;;;;;11.63;84.39;98182.04;2041875;87;21024;-64
2021/05/18 18:04:24;;;;;;;21.90;8.33;;;;;;;11.63;84.73;98184.17;2041522;87;21148;-64
2021/05/18 18:07:26;;;;;;;24.47;9.45;;;;;;;11.65;85.07;98178.80;2041907;87;21577;-64
2021/05/18 18:10:29;;;;;;;22.17;7.12;;;;;;;11.65;85.37;98180.12;2042128;87;21044;-65
2021/05/18 18:13:30;;;;;;;12.25;3.70;;;;;;;11.63;85.80;98196.00;2041659;87;21064;-64
2021/05/18 18:16:32;;;;;;;12.23;3.40;;;;;;;11.55;86.19;98202.30;2042033;87;21120;-64
2021/05/18 18:19:35;;;;;;;12.18;3.80;;;;;;;11.47;86.54;98202.05;2041558;87;21575;-64
2021/05/18 18:22:38;;;;;;;10.78;3.17;;;;;;;11.37;86.18;98206.66;2041752;87;21164;-65
2021/05/18 18:25:39;;;;;;;12.25;3.58;;;;;;;11.30;86.53;98208.06;2041780;87;21055;-65
2021/05/18 18:28:41;;;;;;;12.73;2.90;;;;;;;11.24;87.18;98221.16;2042013;87;21024;-64
2021/05/18 18:31:42;;;;;;;12.30;3.10;;;;;;;11.16;87.79;98222.22;2041893;87;21676;-64
2021/05/18 18:34:45;;;;;;;9.25;2.87;;;;;;;11.12;87.69;98224.70;2041894;87;21127;-64
2021/05/18 18:37:47;;;;;;;14.30;2.87;;;;;;;11.05;87.82;98220.36;2042112;87;21044;-64
2021/05/18 18:40:48;;;;;;;12.73;3.33;;;;;;;10.97;87.72;98217.94;2041874;87;21739;-64
2021/05/18 18:43:49;;;;;;;8.27;2.87;;;;;;;10.97;87.35;98233.19;2042103;87;21108;-64
2021/05/18 18:46:51;;;;;;;8.53;2.87;;;;;;;10.97;88.05;98235.81;2041862;87;21586;-64
2021/05/18 18:49:54;;;;;;;9.13;2.70;;;;;;;10.95;88.14;98238.18;2041749;87;21072;-64
2021/05/18 18:53:02;;;;;;;9.15;2.77;;;;;;;10.93;87.49;98236.98;2041544;87;21654;-64
2021/05/18 18:55:59;;;;;;;8.30;2.75;;;;;;;10.91;87.56;98236.27;2019014;87;21550;-64
2021/05/18 18:59:01;;;;;;;11.22;2.98;;;;;;;10.87;87.45;98236.12;2020695;88;21061;-63
2021/05/18 19:02:05;;;;;;;12.00;2.85;;;;;;;10.79;87.61;98237.98;2020730;88;21005;-64
2021/05/18 19:14:16;;;;;;;8.23;2.65;;;;;;;10.56;88.11;98235.20;2023669;88;21180;-64
2021/05/18 19:17:17;;;;;;;9.30;3.00;;;;;;;10.52;88.42;98232.91;2023595;88;21141;-65
2021/05/18 19:20:20;;;;;;;11.30;3.20;;;;;;;10.47;88.89;98232.37;2020872;88;21022;-64
2021/05/18 19:23:23;;;;;;;11.00;3.33;;;;;;;10.43;88.94;98235.70;2020456;88;21556;-64
2021/05/18 19:26:25;;;;;;;16.85;4.28;;;;;;;10.39;89.51;98234.23;2020692;88;21086;-64
2021/05/18 19:29:26;;;;;;;13.10;3.70;;;;;;;10.35;89.27;98230.16;2020732;88;21145;-64